sensor_id;sensor_type;location;lat;lon;timestamp;P1;durP1;ratioP1;P2;durP2;ratioP2
28960;SDS011;16068;42.896;20.868;2023-04-03T00:01:59;12.65;;;2.20;;
28960;SDS011;16068;42.896;20.868;2023-04-03T00:04:46;5.00;;;1.90;;
28960;SDS011;16068;42.896;20.868;2023-04-03T00:07:37;1.70;;;1.23;;
28960;SDS011;16068;42.896;20.868;2023-04-03T00:10:23;5.15;;;1.80;;
28960;SDS011;16068;42.896;20.868;2023-04-03T00:19:55;2.80;;;1.75;;
28960;SDS011;16068;42.896;20.868;2023-04-03T00:22:40;4.63;;;1.83;;
28960;SDS011;16068;42.896;20.868;2023-04-03T00:25:26;5.63;;;1.70;;
28960;SDS011;16068;42.896;20.868;2023-04-03T00:28:12;6.10;;;2.28;;
28960;SDS011;16068;42.896;20.868;2023-04-03T00:34:11;3.35;;;1.65;;
28960;SDS011;16068;42.896;20.868;2023-04-03T00:36:57;9.85;;;2.00;;
28960;SDS011;16068;42.896;20.868;2023-04-03T00:39:43;2.53;;;1.40;;
28960;SDS011;16068;42.896;20.868;2023-04-03T00:42:45;2.47;;;1.90;;
28960;SDS011;16068;42.896;20.868;2023-04-03T00:45:34;3.65;;;1.60;;
28960;SDS011;16068;42.896;20.868;2023-04-03T00:48:23;10.68;;;2.63;;
28960;SDS011;16068;42.896;20.868;2023-04-03T00:52:53;11.98;;;5.20;;
28960;SDS011;16068;42.896;20.868;2023-04-03T00:55:39;23.90;;;8.40;;
28960;SDS011;16068;42.896;20.868;2023-04-03T00:58:30;17.90;;;6.68;;
28960;SDS011;16068;42.896;20.868;2023-04-03T01:01:38;6.70;;;3.00;;
28960;SDS011;16068;42.896;20.868;2023-04-03T01:04:37;9.02;;;2.08;;
28960;SDS011;16068;42.896;20.868;2023-04-03T01:07:29;3.72;;;1.90;;
28960;SDS011;16068;42.896;20.868;2023-04-03T01:10:16;2.72;;;1.80;;
28960;SDS011;16068;42.896;20.868;2023-04-03T01:26:17;5.05;;;2.10;;
28960;SDS011;16068;42.896;20.868;2023-04-03T01:29:09;3.65;;;1.73;;
28960;SDS011;16068;42.896;20.868;2023-04-03T01:31:56;2.80;;;1.60;;
28960;SDS011;16068;42.896;20.868;2023-04-03T01:34:43;2.22;;;1.30;;
28960;SDS011;16068;42.896;20.868;2023-04-03T01:37:28;2.58;;;1.65;;
28960;SDS011;16068;42.896;20.868;2023-04-03T01:40:14;5.72;;;1.90;;
28960;SDS011;16068;42.896;20.868;2023-04-03T01:43:01;2.58;;;1.73;;
28960;SDS011;16068;42.896;20.868;2023-04-03T01:45:47;2.35;;;1.50;;
28960;SDS011;16068;42.896;20.868;2023-04-03T01:48:35;4.72;;;1.80;;
28960;SDS011;16068;42.896;20.868;2023-04-03T01:51:21;2.95;;;1.90;;
28960;SDS011;16068;42.896;20.868;2023-04-03T01:57:41;2.35;;;1.52;;
28960;SDS011;16068;42.896;20.868;2023-04-03T02:00:26;3.00;;;1.80;;
28960;SDS011;16068;42.896;20.868;2023-04-03T02:03:12;3.00;;;1.60;;
28960;SDS011;16068;42.896;20.868;2023-04-03T02:05:58;2.67;;;1.73;;
28960;SDS011;16068;42.896;20.868;2023-04-03T02:08:44;2.60;;;1.58;;
28960;SDS011;16068;42.896;20.868;2023-04-03T02:11:40;3.03;;;1.58;;
28960;SDS011;16068;42.896;20.868;2023-04-03T02:14:25;5.55;;;2.28;;
28960;SDS011;16068;42.896;20.868;2023-04-03T02:17:12;7.90;;;3.83;;
28960;SDS011;16068;42.896;20.868;2023-04-03T02:19:59;16.08;;;5.03;;
28960;SDS011;16068;42.896;20.868;2023-04-03T02:22:45;6.90;;;3.45;;
28960;SDS011;16068;42.896;20.868;2023-04-03T02:25:31;6.97;;;2.85;;
28960;SDS011;16068;42.896;20.868;2023-04-03T02:28:17;6.88;;;2.28;;
28960;SDS011;16068;42.896;20.868;2023-04-03T02:31:02;5.50;;;2.78;;
28960;SDS011;16068;42.896;20.868;2023-04-03T02:33:49;11.18;;;5.40;;
28960;SDS011;16068;42.896;20.868;2023-04-03T02:36:36;13.57;;;6.57;;
28960;SDS011;16068;42.896;20.868;2023-04-03T02:39:25;11.82;;;5.82;;
28960;SDS011;16068;42.896;20.868;2023-04-03T02:42:13;12.60;;;6.13;;
28960;SDS011;16068;42.896;20.868;2023-04-03T02:44:59;13.20;;;5.72;;
28960;SDS011;16068;42.896;20.868;2023-04-03T02:47:46;13.68;;;6.28;;
28960;SDS011;16068;42.896;20.868;2023-04-03T02:50:31;9.40;;;5.25;;
28960;SDS011;16068;42.896;20.868;2023-04-03T02:53:17;14.13;;;6.88;;
28960;SDS011;16068;42.896;20.868;2023-04-03T02:56:07;15.00;;;7.25;;
28960;SDS011;16068;42.896;20.868;2023-04-03T02:58:53;19.13;;;8.68;;
28960;SDS011;16068;42.896;20.868;2023-04-03T03:01:39;17.30;;;8.45;;
28960;SDS011;16068;42.896;20.868;2023-04-03T03:04:25;23.98;;;10.60;;
28960;SDS011;16068;42.896;20.868;2023-04-03T03:07:11;23.35;;;9.48;;
28960;SDS011;16068;42.896;20.868;2023-04-03T03:09:57;130.38;;;53.65;;
28960;SDS011;16068;42.896;20.868;2023-04-03T03:12:44;141.77;;;58.72;;
28960;SDS011;16068;42.896;20.868;2023-04-03T03:15:30;224.57;;;86.13;;
28960;SDS011;16068;42.896;20.868;2023-04-03T03:18:16;213.32;;;84.78;;
28960;SDS011;16068;42.896;20.868;2023-04-03T03:21:02;102.43;;;41.08;;
28960;SDS011;16068;42.896;20.868;2023-04-03T03:23:50;77.32;;;31.40;;
28960;SDS011;16068;42.896;20.868;2023-04-03T03:26:36;48.30;;;21.85;;
28960;SDS011;16068;42.896;20.868;2023-04-03T03:29:22;49.55;;;19.65;;
28960;SDS011;16068;42.896;20.868;2023-04-03T03:32:08;50.63;;;21.80;;
28960;SDS011;16068;42.896;20.868;2023-04-03T03:34:54;46.20;;;18.65;;
28960;SDS011;16068;42.896;20.868;2023-04-03T03:37:40;40.58;;;16.70;;
28960;SDS011;16068;42.896;20.868;2023-04-03T03:40:26;34.88;;;15.55;;
28960;SDS011;16068;42.896;20.868;2023-04-03T03:43:12;38.15;;;17.17;;
28960;SDS011;16068;42.896;20.868;2023-04-03T03:45:57;47.20;;;19.80;;
28960;SDS011;16068;42.896;20.868;2023-04-03T03:48:45;64.10;;;26.60;;
28960;SDS011;16068;42.896;20.868;2023-04-03T03:51:30;86.75;;;35.45;;
28960;SDS011;16068;42.896;20.868;2023-04-03T03:54:16;99.65;;;40.42;;
28960;SDS011;16068;42.896;20.868;2023-04-03T03:57:02;102.63;;;44.50;;
28960;SDS011;16068;42.896;20.868;2023-04-03T03:59:48;107.18;;;43.95;;
28960;SDS011;16068;42.896;20.868;2023-04-03T04:02:37;106.82;;;45.28;;
28960;SDS011;16068;42.896;20.868;2023-04-03T04:05:23;108.68;;;46.83;;
28960;SDS011;16068;42.896;20.868;2023-04-03T04:08:11;99.60;;;42.30;;
28960;SDS011;16068;42.896;20.868;2023-04-03T04:10:57;74.97;;;33.35;;
28960;SDS011;16068;42.896;20.868;2023-04-03T04:13:42;51.55;;;24.27;;
28960;SDS011;16068;42.896;20.868;2023-04-03T04:16:31;35.50;;;17.92;;
28960;SDS011;16068;42.896;20.868;2023-04-03T04:19:21;26.67;;;12.82;;
28960;SDS011;16068;42.896;20.868;2023-04-03T04:22:07;19.20;;;9.40;;
28960;SDS011;16068;42.896;20.868;2023-04-03T04:24:53;19.67;;;9.80;;
28960;SDS011;16068;42.896;20.868;2023-04-03T04:27:38;25.98;;;10.18;;
28960;SDS011;16068;42.896;20.868;2023-04-03T04:30:25;27.92;;;9.85;;
28960;SDS011;16068;42.896;20.868;2023-04-03T04:33:14;25.25;;;9.02;;
28960;SDS011;16068;42.896;20.868;2023-04-03T04:36:02;20.52;;;8.20;;
28960;SDS011;16068;42.896;20.868;2023-04-03T04:38:49;14.15;;;7.82;;
28960;SDS011;16068;42.896;20.868;2023-04-03T04:41:40;14.25;;;6.93;;
28960;SDS011;16068;42.896;20.868;2023-04-03T04:44:27;18.13;;;7.28;;
28960;SDS011;16068;42.896;20.868;2023-04-03T04:47:28;13.00;;;6.60;;
28960;SDS011;16068;42.896;20.868;2023-04-03T04:50:14;15.68;;;6.50;;
28960;SDS011;16068;42.896;20.868;2023-04-03T04:53:00;12.23;;;6.45;;
28960;SDS011;16068;42.896;20.868;2023-04-03T04:55:46;13.18;;;6.90;;
28960;SDS011;16068;42.896;20.868;2023-04-03T04:58:32;18.15;;;7.75;;
28960;SDS011;16068;42.896;20.868;2023-04-03T05:01:19;25.08;;;9.32;;
28960;SDS011;16068;42.896;20.868;2023-04-03T05:04:31;46.15;;;13.00;;
28960;SDS011;16068;42.896;20.868;2023-04-03T05:15:26;23.45;;;10.07;;
28960;SDS011;16068;42.896;20.868;2023-04-03T05:18:12;29.13;;;10.45;;
28960;SDS011;16068;42.896;20.868;2023-04-03T05:21:06;23.15;;;12.57;;
28960;SDS011;16068;42.896;20.868;2023-04-03T05:23:52;38.03;;;16.80;;
28960;SDS011;16068;42.896;20.868;2023-04-03T05:26:38;26.42;;;12.55;;
28960;SDS011;16068;42.896;20.868;2023-04-03T05:29:25;28.60;;;12.35;;
28960;SDS011;16068;42.896;20.868;2023-04-03T05:37:21;38.08;;;12.75;;
28960;SDS011;16068;42.896;20.868;2023-04-03T05:40:10;25.67;;;11.75;;
28960;SDS011;16068;42.896;20.868;2023-04-03T05:43:00;25.00;;;11.80;;
28960;SDS011;16068;42.896;20.868;2023-04-03T05:45:51;26.45;;;12.30;;
28960;SDS011;16068;42.896;20.868;2023-04-03T05:48:39;30.60;;;13.73;;
28960;SDS011;16068;42.896;20.868;2023-04-03T05:51:28;33.17;;;15.75;;
28960;SDS011;16068;42.896;20.868;2023-04-03T05:54:24;35.10;;;16.23;;
28960;SDS011;16068;42.896;20.868;2023-04-03T05:57:31;49.08;;;15.90;;
28960;SDS011;16068;42.896;20.868;2023-04-03T06:00:17;46.25;;;12.75;;
28960;SDS011;16068;42.896;20.868;2023-04-03T06:03:13;31.15;;;10.88;;
28960;SDS011;16068;42.896;20.868;2023-04-03T06:06:02;22.95;;;8.80;;
28960;SDS011;16068;42.896;20.868;2023-04-03T06:08:49;31.52;;;8.57;;
28960;SDS011;16068;42.896;20.868;2023-04-03T06:11:35;21.73;;;8.82;;
28960;SDS011;16068;42.896;20.868;2023-04-03T06:14:21;28.63;;;9.40;;
28960;SDS011;16068;42.896;20.868;2023-04-03T06:17:06;26.67;;;8.45;;
28960;SDS011;16068;42.896;20.868;2023-04-03T06:19:55;36.00;;;6.90;;
28960;SDS011;16068;42.896;20.868;2023-04-03T06:22:43;30.85;;;6.28;;
28960;SDS011;16068;42.896;20.868;2023-04-03T06:25:29;19.15;;;6.00;;
28960;SDS011;16068;42.896;20.868;2023-04-03T06:28:19;19.83;;;5.30;;
28960;SDS011;16068;42.896;20.868;2023-04-03T06:31:05;28.83;;;4.82;;
28960;SDS011;16068;42.896;20.868;2023-04-03T06:33:51;14.55;;;3.38;;
28960;SDS011;16068;42.896;20.868;2023-04-03T06:36:38;4.38;;;2.80;;
28960;SDS011;16068;42.896;20.868;2023-04-03T06:39:24;7.32;;;2.90;;
28960;SDS011;16068;42.896;20.868;2023-04-03T06:42:11;12.45;;;3.35;;
28960;SDS011;16068;42.896;20.868;2023-04-03T06:45:10;6.82;;;3.47;;
28960;SDS011;16068;42.896;20.868;2023-04-03T06:48:02;6.63;;;3.38;;
28960;SDS011;16068;42.896;20.868;2023-04-03T06:50:49;26.42;;;7.95;;
28960;SDS011;16068;42.896;20.868;2023-04-03T06:53:36;10.57;;;5.35;;
28960;SDS011;16068;42.896;20.868;2023-04-03T06:56:22;8.43;;;4.28;;
28960;SDS011;16068;42.896;20.868;2023-04-03T06:59:08;6.32;;;3.20;;
28960;SDS011;16068;42.896;20.868;2023-04-03T07:01:55;9.80;;;3.47;;
28960;SDS011;16068;42.896;20.868;2023-04-03T07:04:47;7.97;;;3.92;;
28960;SDS011;16068;42.896;20.868;2023-04-03T07:07:33;5.10;;;3.63;;
28960;SDS011;16068;42.896;20.868;2023-04-03T07:10:24;22.35;;;3.92;;
28960;SDS011;16068;42.896;20.868;2023-04-03T07:13:11;5.55;;;3.78;;
28960;SDS011;16068;42.896;20.868;2023-04-03T07:16:03;6.70;;;3.85;;
28960;SDS011;16068;42.896;20.868;2023-04-03T07:18:53;4.57;;;4.00;;
28960;SDS011;16068;42.896;20.868;2023-04-03T07:21:47;6.93;;;4.30;;
28960;SDS011;16068;42.896;20.868;2023-04-03T07:24:33;7.63;;;4.78;;
28960;SDS011;16068;42.896;20.868;2023-04-03T07:27:20;10.00;;;5.10;;
28960;SDS011;16068;42.896;20.868;2023-04-03T07:30:06;12.93;;;5.05;;
28960;SDS011;16068;42.896;20.868;2023-04-03T07:32:52;9.27;;;4.95;;
28960;SDS011;16068;42.896;20.868;2023-04-03T07:35:39;7.80;;;5.40;;
28960;SDS011;16068;42.896;20.868;2023-04-03T07:38:28;12.27;;;5.57;;
28960;SDS011;16068;42.896;20.868;2023-04-03T07:41:15;10.00;;;5.60;;
28960;SDS011;16068;42.896;20.868;2023-04-03T07:44:03;13.45;;;6.15;;
28960;SDS011;16068;42.896;20.868;2023-04-03T07:46:50;13.73;;;6.75;;
28960;SDS011;16068;42.896;20.868;2023-04-03T07:49:36;11.55;;;7.65;;
28960;SDS011;16068;42.896;20.868;2023-04-03T07:52:25;18.40;;;7.35;;
28960;SDS011;16068;42.896;20.868;2023-04-03T07:55:11;11.20;;;7.72;;
28960;SDS011;16068;42.896;20.868;2023-04-03T07:57:57;13.15;;;7.65;;
28960;SDS011;16068;42.896;20.868;2023-04-03T08:00:43;14.30;;;7.47;;
28960;SDS011;16068;42.896;20.868;2023-04-03T08:03:29;16.02;;;8.10;;
28960;SDS011;16068;42.896;20.868;2023-04-03T08:06:16;15.20;;;9.20;;
28960;SDS011;16068;42.896;20.868;2023-04-03T08:09:06;15.85;;;7.47;;
28960;SDS011;16068;42.896;20.868;2023-04-03T08:11:51;19.63;;;7.63;;
28960;SDS011;16068;42.896;20.868;2023-04-03T08:14:39;15.20;;;7.85;;
28960;SDS011;16068;42.896;20.868;2023-04-03T08:17:25;23.88;;;10.57;;
28960;SDS011;16068;42.896;20.868;2023-04-03T08:20:11;19.60;;;7.28;;
28960;SDS011;16068;42.896;20.868;2023-04-03T08:22:58;12.30;;;6.07;;
28960;SDS011;16068;42.896;20.868;2023-04-03T08:25:43;13.25;;;4.50;;
28960;SDS011;16068;42.896;20.868;2023-04-03T08:28:29;14.60;;;4.18;;
28960;SDS011;16068;42.896;20.868;2023-04-03T08:31:16;7.72;;;4.50;;
28960;SDS011;16068;42.896;20.868;2023-04-03T08:34:03;13.63;;;5.10;;
28960;SDS011;16068;42.896;20.868;2023-04-03T08:36:49;13.23;;;4.03;;
28960;SDS011;16068;42.896;20.868;2023-04-03T08:39:35;7.22;;;2.70;;
28960;SDS011;16068;42.896;20.868;2023-04-03T08:45:45;16.23;;;3.72;;
28960;SDS011;16068;42.896;20.868;2023-04-03T08:48:38;15.38;;;5.20;;
28960;SDS011;16068;42.896;20.868;2023-04-03T08:51:27;16.80;;;6.05;;
28960;SDS011;16068;42.896;20.868;2023-04-03T08:54:21;22.15;;;7.55;;
28960;SDS011;16068;42.896;20.868;2023-04-03T08:57:33;24.02;;;9.00;;
28960;SDS011;16068;42.896;20.868;2023-04-03T09:00:23;18.10;;;8.15;;
28960;SDS011;16068;42.896;20.868;2023-04-03T09:03:11;12.52;;;4.88;;
28960;SDS011;16068;42.896;20.868;2023-04-03T09:06:19;10.80;;;4.60;;
28960;SDS011;16068;42.896;20.868;2023-04-03T09:12:06;7.28;;;2.58;;
28960;SDS011;16068;42.896;20.868;2023-04-03T09:15:09;19.90;;;2.85;;
28960;SDS011;16068;42.896;20.868;2023-04-03T09:18:27;8.93;;;2.90;;
28960;SDS011;16068;42.896;20.868;2023-04-03T09:21:24;17.80;;;2.55;;
28960;SDS011;16068;42.896;20.868;2023-04-03T09:24:15;9.35;;;2.25;;
28960;SDS011;16068;42.896;20.868;2023-04-03T09:27:04;28.50;;;2.95;;
28960;SDS011;16068;42.896;20.868;2023-04-03T09:29:52;16.52;;;2.30;;
28960;SDS011;16068;42.896;20.868;2023-04-03T09:32:39;11.38;;;2.40;;
28960;SDS011;16068;42.896;20.868;2023-04-03T09:35:26;10.20;;;1.67;;
28960;SDS011;16068;42.896;20.868;2023-04-03T09:38:33;10.45;;;2.17;;
28960;SDS011;16068;42.896;20.868;2023-04-03T09:41:19;18.08;;;9.88;;
28960;SDS011;16068;42.896;20.868;2023-04-03T09:44:17;10.88;;;2.83;;
28960;SDS011;16068;42.896;20.868;2023-04-03T09:52:58;10.13;;;2.63;;
28960;SDS011;16068;42.896;20.868;2023-04-03T09:55:44;15.80;;;3.28;;
28960;SDS011;16068;42.896;20.868;2023-04-03T09:58:38;17.98;;;2.85;;
28960;SDS011;16068;42.896;20.868;2023-04-03T10:01:36;17.55;;;2.30;;
28960;SDS011;16068;42.896;20.868;2023-04-03T10:04:25;2.35;;;1.90;;
28960;SDS011;16068;42.896;20.868;2023-04-03T10:10:16;7.53;;;2.05;;
28960;SDS011;16068;42.896;20.868;2023-04-03T10:13:13;10.68;;;2.80;;
28960;SDS011;16068;42.896;20.868;2023-04-03T10:16:07;6.38;;;2.10;;
28960;SDS011;16068;42.896;20.868;2023-04-03T10:28:05;16.23;;;2.15;;
28960;SDS011;16068;42.896;20.868;2023-04-03T10:34:21;9.65;;;2.15;;
28960;SDS011;16068;42.896;20.868;2023-04-03T10:37:13;4.47;;;2.45;;
28960;SDS011;16068;42.896;20.868;2023-04-03T10:43:57;13.55;;;2.25;;
28960;SDS011;16068;42.896;20.868;2023-04-03T10:46:50;5.57;;;2.33;;
28960;SDS011;16068;42.896;20.868;2023-04-03T11:05:39;11.55;;;2.90;;
28960;SDS011;16068;42.896;20.868;2023-04-03T11:08:38;10.20;;;3.15;;
28960;SDS011;16068;42.896;20.868;2023-04-03T11:11:32;5.63;;;3.33;;
28960;SDS011;16068;42.896;20.868;2023-04-03T11:20:22;5.70;;;2.40;;
28960;SDS011;16068;42.896;20.868;2023-04-03T11:23:33;8.07;;;2.95;;
28960;SDS011;16068;42.896;20.868;2023-04-03T11:26:35;17.98;;;3.30;;
28960;SDS011;16068;42.896;20.868;2023-04-03T11:29:31;6.28;;;2.75;;
28960;SDS011;16068;42.896;20.868;2023-04-03T11:35:45;16.80;;;3.45;;
28960;SDS011;16068;42.896;20.868;2023-04-03T11:38:33;14.00;;;2.58;;
28960;SDS011;16068;42.896;20.868;2023-04-03T11:41:24;11.77;;;2.78;;
28960;SDS011;16068;42.896;20.868;2023-04-03T11:47:47;17.63;;;3.33;;
28960;SDS011;16068;42.896;20.868;2023-04-03T11:53:27;11.10;;;3.20;;
28960;SDS011;16068;42.896;20.868;2023-04-03T11:59:16;6.38;;;3.05;;
28960;SDS011;16068;42.896;20.868;2023-04-03T12:02:44;25.38;;;3.38;;
28960;SDS011;16068;42.896;20.868;2023-04-03T12:05:42;17.63;;;3.45;;
28960;SDS011;16068;42.896;20.868;2023-04-03T12:11:30;14.23;;;3.92;;
28960;SDS011;16068;42.896;20.868;2023-04-03T12:14:17;16.48;;;3.30;;
28960;SDS011;16068;42.896;20.868;2023-04-03T12:17:03;22.23;;;3.50;;
28960;SDS011;16068;42.896;20.868;2023-04-03T12:23:37;5.30;;;3.33;;
28960;SDS011;16068;42.896;20.868;2023-04-03T12:32:58;10.75;;;3.15;;
28960;SDS011;16068;42.896;20.868;2023-04-03T12:36:12;16.25;;;3.90;;
28960;SDS011;16068;42.896;20.868;2023-04-03T12:47:44;12.75;;;3.20;;
28960;SDS011;16068;42.896;20.868;2023-04-03T12:50:31;24.42;;;12.30;;
28960;SDS011;16068;42.896;20.868;2023-04-03T12:53:35;6.07;;;3.67;;
28960;SDS011;16068;42.896;20.868;2023-04-03T12:56:25;8.80;;;3.83;;
28960;SDS011;16068;42.896;20.868;2023-04-03T12:59:25;6.32;;;3.88;;
28960;SDS011;16068;42.896;20.868;2023-04-03T13:02:20;12.30;;;3.92;;
28960;SDS011;16068;42.896;20.868;2023-04-03T13:05:16;16.27;;;3.83;;
28960;SDS011;16068;42.896;20.868;2023-04-03T13:08:04;11.20;;;3.83;;
28960;SDS011;16068;42.896;20.868;2023-04-03T13:10:55;11.20;;;4.05;;
28960;SDS011;16068;42.896;20.868;2023-04-03T13:13:53;20.77;;;4.35;;
28960;SDS011;16068;42.896;20.868;2023-04-03T13:17:02;11.27;;;5.22;;
28960;SDS011;16068;42.896;20.868;2023-04-03T13:19:50;8.70;;;4.70;;
28960;SDS011;16068;42.896;20.868;2023-04-03T13:22:37;8.30;;;4.63;;
28960;SDS011;16068;42.896;20.868;2023-04-03T13:25:35;12.50;;;4.80;;
28960;SDS011;16068;42.896;20.868;2023-04-03T13:28:23;26.90;;;11.10;;
28960;SDS011;16068;42.896;20.868;2023-04-03T13:36:56;21.33;;;8.95;;
28960;SDS011;16068;42.896;20.868;2023-04-03T13:39:43;13.70;;;6.32;;
28960;SDS011;16068;42.896;20.868;2023-04-03T13:42:31;13.70;;;6.95;;
28960;SDS011;16068;42.896;20.868;2023-04-03T13:45:26;12.65;;;5.88;;
28960;SDS011;16068;42.896;20.868;2023-04-03T13:48:16;8.48;;;5.32;;
28960;SDS011;16068;42.896;20.868;2023-04-03T13:54:00;19.05;;;5.40;;
28960;SDS011;16068;42.896;20.868;2023-04-03T13:56:56;9.88;;;6.13;;
28960;SDS011;16068;42.896;20.868;2023-04-03T13:59:43;13.70;;;5.93;;
28960;SDS011;16068;42.896;20.868;2023-04-03T14:02:31;8.98;;;5.97;;
28960;SDS011;16068;42.896;20.868;2023-04-03T14:05:17;10.13;;;5.47;;
28960;SDS011;16068;42.896;20.868;2023-04-03T14:08:06;9.27;;;5.53;;
28960;SDS011;16068;42.896;20.868;2023-04-03T14:10:52;8.18;;;5.60;;
28960;SDS011;16068;42.896;20.868;2023-04-03T14:13:38;12.30;;;5.55;;
28960;SDS011;16068;42.896;20.868;2023-04-03T14:16:25;8.13;;;5.50;;
28960;SDS011;16068;42.896;20.868;2023-04-03T14:19:18;11.57;;;6.80;;
28960;SDS011;16068;42.896;20.868;2023-04-03T14:25:20;11.35;;;5.70;;
28960;SDS011;16068;42.896;20.868;2023-04-03T14:28:14;13.68;;;6.22;;
28960;SDS011;16068;42.896;20.868;2023-04-03T14:31:02;10.38;;;5.55;;
28960;SDS011;16068;42.896;20.868;2023-04-03T14:33:48;16.92;;;6.03;;
28960;SDS011;16068;42.896;20.868;2023-04-03T14:36:34;17.00;;;6.15;;
28960;SDS011;16068;42.896;20.868;2023-04-03T14:39:21;26.10;;;7.13;;
28960;SDS011;16068;42.896;20.868;2023-04-03T14:42:11;24.73;;;5.80;;
28960;SDS011;16068;42.896;20.868;2023-04-03T14:45:01;7.55;;;5.80;;
28960;SDS011;16068;42.896;20.868;2023-04-03T14:47:49;12.63;;;5.70;;
28960;SDS011;16068;42.896;20.868;2023-04-03T14:50:37;14.15;;;6.07;;
28960;SDS011;16068;42.896;20.868;2023-04-03T14:53:23;10.55;;;6.55;;
28960;SDS011;16068;42.896;20.868;2023-04-03T14:56:26;21.35;;;7.10;;
28960;SDS011;16068;42.896;20.868;2023-04-03T14:59:13;14.40;;;6.78;;
28960;SDS011;16068;42.896;20.868;2023-04-03T15:02:00;9.50;;;6.43;;
28960;SDS011;16068;42.896;20.868;2023-04-03T15:04:46;8.25;;;6.57;;
28960;SDS011;16068;42.896;20.868;2023-04-03T15:07:35;6.70;;;5.75;;
28960;SDS011;16068;42.896;20.868;2023-04-03T15:10:24;9.00;;;5.97;;
28960;SDS011;16068;42.896;20.868;2023-04-03T15:13:11;7.07;;;5.55;;
28960;SDS011;16068;42.896;20.868;2023-04-03T15:15:58;7.72;;;5.35;;
28960;SDS011;16068;42.896;20.868;2023-04-03T15:18:45;7.18;;;5.55;;
28960;SDS011;16068;42.896;20.868;2023-04-03T15:21:31;11.75;;;6.28;;
28960;SDS011;16068;42.896;20.868;2023-04-03T15:24:18;7.28;;;5.43;;
28960;SDS011;16068;42.896;20.868;2023-04-03T15:27:03;7.65;;;5.88;;
28960;SDS011;16068;42.896;20.868;2023-04-03T15:29:49;7.78;;;5.50;;
28960;SDS011;16068;42.896;20.868;2023-04-03T15:32:35;8.70;;;6.00;;
28960;SDS011;16068;42.896;20.868;2023-04-03T15:35:22;9.75;;;6.13;;
28960;SDS011;16068;42.896;20.868;2023-04-03T16:03:33;11.48;;;8.00;;
28960;SDS011;16068;42.896;20.868;2023-04-03T16:06:20;8.02;;;6.22;;
28960;SDS011;16068;42.896;20.868;2023-04-03T16:09:08;9.18;;;6.25;;
28960;SDS011;16068;42.896;20.868;2023-04-03T16:11:54;9.32;;;6.10;;
28960;SDS011;16068;42.896;20.868;2023-04-03T16:14:40;7.88;;;5.95;;
28960;SDS011;16068;42.896;20.868;2023-04-03T16:17:27;9.38;;;4.88;;
28960;SDS011;16068;42.896;20.868;2023-04-03T16:20:13;7.40;;;5.72;;
28960;SDS011;16068;42.896;20.868;2023-04-03T16:23:00;18.95;;;11.75;;
28960;SDS011;16068;42.896;20.868;2023-04-03T16:25:46;28.80;;;17.73;;
28960;SDS011;16068;42.896;20.868;2023-04-03T16:28:33;10.48;;;7.18;;
28960;SDS011;16068;42.896;20.868;2023-04-03T16:31:19;9.02;;;6.00;;
28960;SDS011;16068;42.896;20.868;2023-04-03T16:34:05;8.93;;;6.47;;
28960;SDS011;16068;42.896;20.868;2023-04-03T16:36:51;23.25;;;13.60;;
28960;SDS011;16068;42.896;20.868;2023-04-03T16:39:40;21.73;;;12.63;;
28960;SDS011;16068;42.896;20.868;2023-04-03T16:42:26;21.10;;;12.35;;
28960;SDS011;16068;42.896;20.868;2023-04-03T16:45:11;7.60;;;5.60;;
28960;SDS011;16068;42.896;20.868;2023-04-03T16:47:57;7.35;;;5.50;;
28960;SDS011;16068;42.896;20.868;2023-04-03T16:50:47;8.65;;;6.25;;
28960;SDS011;16068;42.896;20.868;2023-04-03T16:53:34;7.97;;;5.90;;
28960;SDS011;16068;42.896;20.868;2023-04-03T16:56:21;7.20;;;4.93;;
28960;SDS011;16068;42.896;20.868;2023-04-03T16:59:07;9.13;;;5.60;;
28960;SDS011;16068;42.896;20.868;2023-04-03T17:01:53;8.70;;;5.60;;
28960;SDS011;16068;42.896;20.868;2023-04-03T17:04:40;11.10;;;5.50;;
28960;SDS011;16068;42.896;20.868;2023-04-03T17:07:25;5.35;;;4.40;;
28960;SDS011;16068;42.896;20.868;2023-04-03T17:10:16;8.13;;;5.50;;
28960;SDS011;16068;42.896;20.868;2023-04-03T17:13:10;5.68;;;4.53;;
28960;SDS011;16068;42.896;20.868;2023-04-03T17:15:57;5.88;;;4.47;;
28960;SDS011;16068;42.896;20.868;2023-04-03T17:18:44;8.32;;;4.40;;
28960;SDS011;16068;42.896;20.868;2023-04-03T17:21:30;5.50;;;4.10;;
28960;SDS011;16068;42.896;20.868;2023-04-03T17:24:17;5.70;;;4.38;;
28960;SDS011;16068;42.896;20.868;2023-04-03T17:27:02;5.07;;;3.85;;
28960;SDS011;16068;42.896;20.868;2023-04-03T17:29:48;5.32;;;4.15;;
28960;SDS011;16068;42.896;20.868;2023-04-03T17:32:35;5.28;;;3.90;;
28960;SDS011;16068;42.896;20.868;2023-04-03T17:35:24;5.68;;;4.38;;
28960;SDS011;16068;42.896;20.868;2023-04-03T17:38:09;4.10;;;3.70;;
28960;SDS011;16068;42.896;20.868;2023-04-03T17:40:59;8.07;;;5.03;;
28960;SDS011;16068;42.896;20.868;2023-04-03T17:43:46;6.63;;;4.65;;
28960;SDS011;16068;42.896;20.868;2023-04-03T17:46:32;7.25;;;4.45;;
28960;SDS011;16068;42.896;20.868;2023-04-03T17:49:19;6.55;;;4.30;;
28960;SDS011;16068;42.896;20.868;2023-04-03T17:52:07;5.20;;;3.83;;
28960;SDS011;16068;42.896;20.868;2023-04-03T17:54:53;6.75;;;4.75;;
28960;SDS011;16068;42.896;20.868;2023-04-03T17:57:39;9.70;;;4.45;;
28960;SDS011;16068;42.896;20.868;2023-04-03T18:00:26;7.20;;;4.50;;
28960;SDS011;16068;42.896;20.868;2023-04-03T18:03:12;4.97;;;3.45;;
28960;SDS011;16068;42.896;20.868;2023-04-03T18:05:58;5.10;;;3.95;;
28960;SDS011;16068;42.896;20.868;2023-04-03T18:08:49;4.72;;;3.72;;
28960;SDS011;16068;42.896;20.868;2023-04-03T18:11:36;4.53;;;3.20;;
28960;SDS011;16068;42.896;20.868;2023-04-03T18:14:23;4.80;;;3.78;;
28960;SDS011;16068;42.896;20.868;2023-04-03T18:17:10;4.18;;;3.40;;
28960;SDS011;16068;42.896;20.868;2023-04-03T18:19:56;4.57;;;3.00;;
28960;SDS011;16068;42.896;20.868;2023-04-03T18:22:42;3.75;;;2.83;;
28960;SDS011;16068;42.896;20.868;2023-04-03T18:25:29;5.53;;;3.22;;
28960;SDS011;16068;42.896;20.868;2023-04-03T18:28:21;3.00;;;2.30;;
28960;SDS011;16068;42.896;20.868;2023-04-03T18:31:07;3.33;;;2.72;;
28960;SDS011;16068;42.896;20.868;2023-04-03T18:33:57;3.25;;;2.45;;
28960;SDS011;16068;42.896;20.868;2023-04-03T18:36:43;2.92;;;2.30;;
28960;SDS011;16068;42.896;20.868;2023-04-03T18:39:42;2.92;;;2.45;;
28960;SDS011;16068;42.896;20.868;2023-04-03T18:42:28;3.72;;;2.35;;
28960;SDS011;16068;42.896;20.868;2023-04-03T18:45:14;5.53;;;2.30;;
28960;SDS011;16068;42.896;20.868;2023-04-03T18:48:14;4.05;;;2.25;;
28960;SDS011;16068;42.896;20.868;2023-04-03T18:51:00;3.15;;;2.00;;
28960;SDS011;16068;42.896;20.868;2023-04-03T18:53:47;3.30;;;2.03;;
28960;SDS011;16068;42.896;20.868;2023-04-03T18:56:33;2.65;;;1.88;;
28960;SDS011;16068;42.896;20.868;2023-04-03T18:59:19;2.22;;;1.67;;
28960;SDS011;16068;42.896;20.868;2023-04-03T19:02:08;2.42;;;1.70;;
28960;SDS011;16068;42.896;20.868;2023-04-03T19:04:55;3.33;;;2.20;;
28960;SDS011;16068;42.896;20.868;2023-04-03T19:07:42;4.75;;;1.75;;
28960;SDS011;16068;42.896;20.868;2023-04-03T19:10:29;2.22;;;1.63;;
28960;SDS011;16068;42.896;20.868;2023-04-03T19:16:59;5.68;;;1.25;;
28960;SDS011;16068;42.896;20.868;2023-04-03T19:19:47;1.63;;;1.20;;
28960;SDS011;16068;42.896;20.868;2023-04-03T19:22:33;2.15;;;1.33;;
28960;SDS011;16068;42.896;20.868;2023-04-03T19:25:19;2.33;;;1.50;;